createdAt,value
2023-04-06T00:02:30.664Z,65.40
2023-04-06T00:05:03.522Z,64.05
2023-04-06T00:07:38.484Z,64.01
2023-04-06T00:10:16.626Z,63.17
2023-04-06T00:13:03.364Z,64.54
2023-04-06T00:15:35.612Z,63.99
2023-04-06T00:18:10.334Z,63.61
2023-04-06T00:23:25.992Z,64.86
2023-04-06T00:25:55.620Z,64.61
2023-04-06T00:28:27.561Z,64.89
2023-04-06T00:31:05.798Z,64.49
2023-04-06T00:33:36.515Z,64.48
2023-04-06T00:36:08.010Z,65.17
2023-04-06T00:38:47.956Z,65.08
2023-04-06T00:41:19.850Z,64.53
2023-04-06T00:43:55.644Z,64.70
2023-04-06T00:46:25.505Z,64.34
2023-04-06T00:48:58.448Z,63.63
2023-04-06T00:51:43.092Z,64.50
2023-04-06T00:54:24.272Z,64.59
2023-04-06T00:56:58.488Z,65.44
2023-04-06T00:59:32.677Z,64.53
2023-04-06T01:02:03.739Z,65.41
2023-04-06T01:04:43.517Z,65.33
2023-04-06T01:07:20.575Z,66.06
2023-04-06T01:09:52.538Z,66.41
2023-04-06T01:12:29.412Z,66.81
2023-04-06T01:15:00.192Z,67.69
2023-04-06T01:17:42.617Z,67.22
2023-04-06T01:20:11.337Z,67.94
2023-04-06T01:22:41.033Z,68.19
2023-04-06T01:25:12.426Z,69.04
2023-04-06T01:27:43.991Z,69.65
2023-04-06T01:30:25.520Z,69.57
2023-04-06T01:32:59.501Z,70.37
2023-04-06T01:35:32.857Z,70.12
2023-04-06T01:38:02.697Z,70.34
2023-04-06T01:43:12.919Z,71.35
2023-04-06T01:45:51.990Z,72.23
2023-04-06T01:48:22.533Z,72.61
2023-04-06T01:50:54.338Z,72.33
2023-04-06T01:53:27.389Z,73.09
2023-04-06T01:55:59.729Z,73.49
2023-04-06T02:01:31.833Z,72.26
2023-04-06T02:04:05.445Z,72.68
2023-04-06T02:06:41.276Z,71.40
2023-04-06T02:09:24.836Z,71.09
2023-04-06T02:11:54.689Z,70.83
2023-04-06T02:14:30.611Z,71.51
2023-04-06T02:17:00.217Z,71.00
2023-04-06T02:19:30.672Z,71.17
2023-04-06T02:24:44.679Z,72.68
2023-04-06T02:27:16.043Z,71.88
2023-04-06T02:29:54.956Z,72.61
2023-04-06T02:35:39.930Z,71.91
2023-04-06T02:38:09.396Z,72.05
2023-04-06T02:40:41.311Z,72.60
2023-04-06T02:43:10.104Z,72.41
2023-04-06T02:45:38.519Z,73.13
2023-04-06T02:50:58.239Z,74.05
2023-04-06T02:53:30.706Z,75.41
2023-04-06T02:56:03.575Z,74.37
2023-04-06T02:58:34.569Z,74.68
2023-04-06T03:01:05.545Z,75.20
2023-04-06T03:03:40.026Z,75.10
2023-04-06T03:06:09.684Z,75.67
2023-04-06T03:08:40.051Z,76.14
2023-04-06T03:11:15.888Z,76.67
2023-04-06T03:13:45.302Z,76.92
2023-04-06T03:16:31.812Z,77.85
2023-04-06T03:19:00.002Z,78.11
2023-04-06T03:21:31.693Z,78.98
2023-04-06T03:24:06.257Z,79.21
2023-04-06T03:26:45.180Z,79.60
2023-04-06T03:29:14.601Z,79.95
2023-04-06T03:31:45.883Z,80.61
2023-04-06T03:34:14.031Z,79.96
2023-04-06T03:36:41.821Z,80.46
2023-04-06T03:39:16.853Z,80.57
2023-04-06T03:41:47.362Z,81.49
2023-04-06T03:44:16.034Z,82.21
2023-04-06T03:46:44.173Z,82.69
2023-04-06T03:49:12.198Z,82.89
2023-04-06T03:51:40.922Z,83.04
2023-04-06T03:54:22.805Z,82.38
2023-04-06T03:56:58.682Z,84.16
2023-04-06T03:59:28.508Z,84.02
2023-04-06T04:01:56.705Z,84.20
2023-04-06T04:04:37.426Z,85.15
2023-04-06T04:07:08.729Z,84.74
2023-04-06T04:09:37.681Z,84.54
2023-04-06T04:12:10.185Z,85.39
2023-04-06T04:14:41.655Z,85.37
2023-04-06T04:17:10.203Z,85.26
2023-04-06T04:20:03.568Z,85.13
2023-04-06T04:22:31.483Z,84.74
2023-04-06T04:24:59.293Z,85.40
2023-04-06T04:27:28.544Z,85.63
2023-04-06T04:29:56.413Z,86.74
2023-04-06T04:32:24.210Z,85.80
2023-04-06T04:34:51.927Z,86.02
2023-04-06T04:37:22.085Z,86.37
2023-04-06T04:39:49.873Z,85.91
2023-04-06T04:42:17.620Z,86.05
2023-04-06T04:44:46.610Z,85.52
2023-04-06T04:47:14.285Z,85.90
2023-04-06T04:49:42.108Z,85.70
2023-04-06T04:52:09.711Z,86.13
2023-04-06T04:54:37.290Z,85.47
2023-04-06T04:57:06.230Z,85.39
2023-04-06T04:59:34.415Z,84.73
2023-04-06T05:02:09.012Z,84.47
2023-04-06T05:04:37.482Z,84.16
2023-04-06T05:07:06.476Z,83.75
2023-04-06T05:09:34.707Z,83.07
2023-04-06T05:12:03.670Z,83.49
2023-04-06T05:14:31.451Z,82.95
2023-04-06T05:16:59.051Z,82.38
2023-04-06T05:19:30.117Z,82.12
2023-04-06T05:22:02.391Z,80.30
2023-04-06T05:24:31.895Z,77.17
2023-04-06T05:27:02.793Z,74.97
2023-04-06T05:29:47.534Z,73.05
2023-04-06T05:32:17.668Z,71.59
2023-04-06T05:34:48.640Z,70.78
2023-04-06T05:37:17.752Z,70.25
2023-04-06T05:39:45.504Z,67.99
2023-04-06T05:42:13.266Z,68.13
2023-04-06T05:44:41.324Z,67.40
2023-04-06T05:47:08.944Z,66.94
2023-04-06T05:49:36.671Z,65.42
2023-04-06T05:52:06.722Z,63.98
2023-04-06T05:54:34.438Z,62.54
2023-04-06T05:57:04.118Z,62.09
2023-04-06T05:59:31.935Z,60.30
2023-04-06T06:01:59.962Z,60.66
2023-04-06T06:04:27.942Z,58.90
2023-04-06T06:06:55.955Z,56.12
2023-04-06T06:09:24.969Z,54.94
2023-04-06T06:11:52.668Z,52.81
2023-04-06T06:14:20.907Z,50.85
2023-04-06T06:16:48.731Z,50.24
2023-04-06T06:19:16.459Z,49.83
2023-04-06T06:21:44.243Z,48.06
2023-04-06T06:24:12.206Z,46.01
2023-04-06T06:26:41.351Z,44.83
2023-04-06T06:29:11.814Z,47.07
2023-04-06T06:31:39.651Z,43.16
2023-04-06T06:34:07.684Z,40.90
2023-04-06T06:36:36.298Z,41.70
2023-04-06T06:39:05.427Z,41.69
2023-04-06T06:41:33.133Z,40.40
2023-04-06T06:44:03.003Z,41.32
2023-04-06T06:46:30.967Z,42.87
2023-04-06T06:49:08.779Z,39.01
2023-04-06T06:51:41.542Z,38.64
2023-04-06T06:54:11.690Z,39.05
2023-04-06T06:56:41.728Z,40.37
2023-04-06T06:59:11.422Z,39.96
2023-04-06T07:01:41.012Z,39.84
2023-04-06T07:04:13.329Z,39.01
2023-04-06T07:06:46.500Z,37.78
2023-04-06T07:09:14.841Z,34.84
2023-04-06T07:11:42.561Z,34.64
2023-04-06T07:14:13.803Z,35.18
2023-04-06T07:16:42.285Z,37.01
2023-04-06T07:19:10.472Z,36.40
2023-04-06T07:21:38.382Z,34.64
2023-04-06T07:24:06.435Z,34.65
2023-04-06T07:26:50.298Z,33.26
2023-04-06T07:29:20.403Z,33.87
2023-04-06T07:31:51.423Z,32.53
2023-04-06T07:34:30.263Z,34.03
2023-04-06T07:36:58.829Z,33.04
2023-04-06T07:39:28.915Z,34.09
2023-04-06T07:41:57.900Z,33.23
2023-04-06T07:44:27.359Z,33.15
2023-04-06T07:46:55.523Z,32.43
2023-04-06T07:49:24.218Z,33.84
2023-04-06T07:51:52.939Z,34.26
2023-04-06T07:54:22.855Z,34.51
2023-04-06T07:56:51.451Z,34.08
2023-04-06T08:02:06.065Z,35.31
2023-04-06T08:04:36.820Z,36.31
2023-04-06T08:07:04.694Z,35.46
2023-04-06T08:09:32.530Z,35.23
2023-04-06T08:12:13.301Z,35.41
2023-04-06T08:14:41.187Z,35.58
2023-04-06T08:17:13.748Z,35.87
2023-04-06T08:19:44.674Z,35.01
2023-04-06T08:22:12.630Z,35.67
2023-04-06T08:24:41.523Z,35.96
2023-04-06T08:27:10.294Z,35.16
2023-04-06T08:29:37.991Z,36.08
2023-04-06T08:32:12.852Z,35.02
2023-04-06T08:34:42.002Z,35.73
2023-04-06T08:37:10.158Z,35.75
2023-04-06T08:39:46.694Z,34.94
2023-04-06T08:42:23.886Z,34.38
2023-04-06T08:44:53.526Z,34.24
2023-04-06T08:47:24.666Z,36.00
2023-04-06T08:49:57.906Z,35.55
2023-04-06T08:52:28.681Z,35.14
2023-04-06T08:54:56.290Z,34.67
2023-04-06T08:57:24.206Z,34.89
2023-04-06T08:59:53.266Z,36.40
2023-04-06T09:02:22.603Z,34.98
2023-04-06T09:04:54.429Z,34.59
2023-04-06T09:07:24.927Z,35.02
2023-04-06T09:09:53.315Z,34.97
2023-04-06T09:12:30.754Z,33.83
2023-04-06T09:15:02.371Z,35.83
2023-04-06T09:17:33.691Z,34.98
2023-04-06T09:20:02.168Z,36.55
2023-04-06T09:22:39.627Z,35.28
2023-04-06T09:25:08.687Z,35.42
2023-04-06T09:27:38.034Z,34.45
2023-04-06T09:30:19.080Z,34.85
2023-04-06T09:32:48.658Z,36.66
2023-04-06T09:35:17.770Z,36.60
2023-04-06T09:37:46.979Z,37.70
2023-04-06T09:40:19.269Z,37.63
2023-04-06T09:42:52.137Z,38.00
2023-04-06T09:45:24.210Z,38.74
2023-04-06T09:47:54.799Z,38.63
2023-04-06T09:50:26.375Z,39.08
2023-04-06T09:53:06.666Z,38.07
2023-04-06T09:55:42.093Z,38.35
2023-04-06T09:58:16.449Z,39.15
2023-04-06T10:00:51.731Z,38.26
2023-04-06T10:03:33.819Z,38.03
2023-04-06T10:06:08.336Z,38.45
2023-04-06T10:08:41.594Z,37.28
2023-04-06T10:11:11.042Z,37.96
2023-04-06T10:13:47.329Z,37.92
2023-04-06T10:19:17.627Z,38.55
2023-04-06T10:21:50.461Z,38.21
2023-04-06T10:24:19.845Z,37.57
2023-04-06T10:26:59.744Z,37.26
2023-04-06T10:29:27.501Z,37.43
2023-04-06T10:31:56.436Z,37.69
2023-04-06T10:34:24.820Z,37.43
2023-04-06T10:36:54.910Z,38.03
2023-04-06T10:39:29.334Z,37.52
2023-04-06T10:41:57.358Z,38.11
2023-04-06T10:44:26.972Z,37.28
2023-04-06T10:46:58.387Z,37.44
2023-04-06T10:49:27.894Z,36.44
2023-04-06T10:51:57.411Z,35.42
2023-04-06T10:54:29.186Z,35.85
2023-04-06T10:56:57.409Z,36.16
2023-04-06T10:59:26.263Z,36.40
2023-04-06T11:01:56.074Z,37.45
2023-04-06T11:04:27.558Z,36.75
2023-04-06T11:06:56.050Z,38.56
2023-04-06T11:09:28.631Z,37.29
2023-04-06T11:11:57.194Z,36.98
2023-04-06T11:14:27.642Z,36.47
2023-04-06T11:19:46.783Z,36.93
2023-04-06T11:22:14.640Z,36.10
2023-04-06T11:24:43.968Z,36.06
2023-04-06T11:27:12.953Z,36.62
2023-04-06T11:32:31.820Z,35.48
2023-04-06T11:35:02.469Z,33.77
2023-04-06T11:37:31.198Z,34.80
2023-04-06T11:40:02.937Z,35.33
2023-04-06T11:42:32.256Z,34.30
2023-04-06T11:45:05.336Z,34.36
2023-04-06T11:47:38.662Z,35.09
2023-04-06T11:50:17.954Z,35.73
2023-04-06T11:52:48.045Z,35.13
2023-04-06T11:55:21.236Z,35.23
2023-04-06T11:57:50.281Z,33.98
2023-04-06T12:03:03.439Z,34.75
2023-04-06T12:05:34.047Z,34.40
2023-04-06T12:08:03.457Z,33.19
2023-04-06T12:10:33.336Z,34.70
2023-04-06T12:13:01.284Z,33.87
2023-04-06T12:15:29.360Z,33.28
2023-04-06T12:19:13.363Z,33.13
2023-04-06T12:21:50.121Z,33.50
2023-04-06T12:24:20.231Z,33.77
2023-04-06T12:27:08.789Z,34.08
2023-04-06T12:29:40.493Z,32.93
2023-04-06T12:32:17.135Z,32.19
2023-04-06T12:34:48.586Z,31.36
2023-04-06T12:37:24.651Z,31.64
2023-04-06T12:39:52.435Z,31.62
2023-04-06T12:42:20.431Z,31.91
2023-04-06T12:44:48.179Z,31.25
2023-04-06T12:47:17.802Z,30.34
2023-04-06T12:49:47.350Z,29.30
2023-04-06T12:52:17.789Z,28.90
2023-04-06T12:54:45.900Z,29.17
2023-04-06T12:57:16.062Z,28.67
2023-04-06T12:59:47.285Z,29.11
2023-04-06T13:02:18.206Z,29.77
2023-04-06T13:04:48.108Z,30.34
2023-04-06T13:07:16.030Z,31.62
2023-04-06T13:09:43.828Z,31.07
2023-04-06T13:12:11.423Z,30.03
2023-04-06T13:14:41.608Z,29.34
2023-04-06T13:17:15.251Z,28.66
2023-04-06T13:19:47.483Z,28.78
2023-04-06T13:22:16.839Z,30.84
2023-04-06T13:24:44.951Z,30.46
2023-04-06T13:27:12.937Z,30.75
2023-04-06T13:29:40.988Z,30.14
2023-04-06T13:32:10.929Z,30.60
2023-04-06T13:34:41.625Z,32.10
2023-04-06T13:37:11.026Z,30.45
2023-04-06T13:39:38.886Z,30.63
2023-04-06T13:42:08.864Z,30.12
2023-04-06T13:44:45.937Z,29.64
2023-04-06T13:47:16.393Z,29.22
2023-04-06T13:49:46.573Z,29.62
2023-04-06T13:52:18.015Z,30.15
2023-04-06T13:54:46.370Z,29.79
2023-04-06T13:57:15.144Z,29.92
2023-04-06T14:02:13.333Z,30.93
2023-04-06T14:04:41.483Z,31.80
2023-04-06T14:07:09.713Z,31.13
2023-04-06T14:09:40.855Z,31.50
2023-04-06T14:12:08.515Z,31.42
2023-04-06T14:14:36.524Z,31.12
2023-04-06T14:17:04.315Z,32.99
2023-04-06T14:19:32.878Z,32.27
2023-04-06T14:22:01.204Z,31.58
2023-04-06T14:24:28.930Z,31.81
2023-04-06T14:26:58.714Z,31.66
2023-04-06T14:29:26.374Z,31.94
2023-04-06T14:31:54.124Z,32.02
2023-04-06T14:34:22.155Z,32.93
2023-04-06T14:36:49.837Z,32.57
2023-04-06T14:39:19.545Z,32.34
2023-04-06T14:41:49.269Z,32.57
2023-04-06T14:44:19.752Z,32.65
2023-04-06T14:46:47.727Z,32.38
2023-04-06T14:49:15.509Z,32.56
2023-04-06T14:51:43.239Z,32.85
2023-04-06T14:54:10.946Z,33.50
2023-04-06T14:56:40.346Z,33.08
2023-04-06T14:59:07.980Z,32.14
2023-04-06T15:01:37.957Z,32.90
2023-04-06T15:04:06.601Z,32.64
2023-04-06T15:06:34.459Z,32.60
2023-04-06T15:09:02.111Z,32.97
2023-04-06T15:11:29.892Z,32.50
2023-04-06T15:13:57.934Z,33.08
2023-04-06T15:16:38.657Z,32.79
2023-04-06T15:19:08.394Z,33.04
2023-04-06T15:21:38.826Z,33.39
2023-04-06T15:24:09.472Z,33.36
2023-04-06T15:26:37.767Z,33.29
2023-04-06T15:29:05.571Z,33.44
2023-04-06T15:31:38.075Z,33.59
2023-04-06T15:34:11.051Z,33.40
2023-04-06T15:36:39.077Z,32.50
2023-04-06T15:39:09.753Z,32.26
2023-04-06T15:41:38.904Z,33.10
2023-04-06T15:44:08.336Z,32.97
2023-04-06T15:46:36.557Z,33.74
2023-04-06T15:49:05.024Z,33.19
2023-04-06T15:51:34.836Z,33.84
2023-04-06T15:54:03.694Z,34.35
2023-04-06T15:56:33.062Z,33.92
2023-04-06T15:59:08.064Z,33.80
2023-04-06T16:01:36.224Z,33.92
2023-04-06T16:04:06.884Z,34.27
2023-04-06T16:06:51.543Z,33.94
2023-04-06T16:09:20.938Z,33.58
2023-04-06T16:11:48.788Z,34.12
2023-04-06T16:14:22.157Z,34.63
2023-04-06T16:16:53.397Z,34.85
2023-04-06T16:19:21.518Z,34.75
2023-04-06T16:24:42.547Z,35.06
2023-04-06T16:27:10.652Z,35.35
2023-04-06T16:29:38.480Z,35.71
2023-04-06T16:32:06.737Z,36.47
2023-04-06T16:34:45.036Z,36.59
2023-04-06T16:37:14.786Z,36.48
2023-04-06T16:39:42.628Z,36.40
2023-04-06T16:42:12.872Z,36.92
2023-04-06T16:44:49.858Z,36.97
2023-04-06T16:47:18.912Z,36.68
2023-04-06T16:49:51.729Z,37.05
2023-04-06T16:52:24.089Z,37.05
2023-04-06T16:55:02.371Z,37.67
2023-04-06T16:57:30.342Z,37.59
2023-04-06T16:59:59.104Z,37.11
2023-04-06T17:02:27.478Z,37.32
2023-04-06T17:04:59.507Z,37.37
2023-04-06T17:07:33.162Z,37.41
2023-04-06T17:10:37.270Z,37.18
2023-04-06T17:13:12.247Z,37.91
2023-04-06T17:15:40.648Z,38.13
2023-04-06T17:18:09.407Z,38.70
2023-04-06T17:20:38.100Z,38.52
2023-04-06T17:23:16.886Z,38.54
2023-04-06T17:25:48.268Z,39.21
2023-04-06T17:28:24.789Z,39.33
2023-04-06T17:30:52.992Z,39.40
2023-04-06T17:33:22.173Z,39.63
2023-04-06T17:35:51.891Z,39.85
2023-04-06T17:38:26.144Z,40.63
2023-04-06T17:40:54.247Z,40.96
2023-04-06T17:43:22.275Z,40.41
2023-04-06T17:48:39.134Z,41.04
2023-04-06T17:51:07.094Z,40.73
2023-04-06T17:53:37.976Z,41.51
2023-04-06T17:56:21.689Z,41.66
2023-04-06T17:58:57.176Z,42.09
2023-04-06T18:01:27.370Z,41.90
2023-04-06T18:04:05.834Z,42.92
2023-04-06T18:06:34.575Z,43.71
2023-04-06T18:09:10.138Z,43.71
2023-04-06T18:11:40.322Z,43.77
2023-04-06T18:14:11.319Z,44.54
2023-04-06T18:16:48.058Z,44.44
2023-04-06T18:19:33.622Z,44.50
2023-04-06T18:22:02.223Z,45.07
2023-04-06T18:24:42.007Z,45.18
2023-04-06T18:27:14.976Z,46.03
2023-04-06T18:29:46.038Z,46.07
2023-04-06T18:32:22.610Z,47.64
2023-04-06T18:34:56.320Z,47.68
2023-04-06T18:37:28.065Z,48.73
2023-04-06T18:40:00.203Z,49.38
2023-04-06T18:42:27.947Z,50.35
2023-04-06T18:44:56.085Z,51.00
2023-04-06T18:47:29.556Z,51.40
2023-04-06T18:49:59.793Z,52.36
2023-04-06T18:52:28.841Z,52.78
2023-04-06T18:54:59.489Z,53.86
2023-04-06T18:57:29.014Z,54.39
2023-04-06T18:59:57.221Z,55.32
2023-04-06T19:02:25.816Z,55.94
2023-04-06T19:04:56.795Z,57.30
2023-04-06T19:07:27.430Z,59.36
2023-04-06T19:10:03.912Z,59.95
2023-04-06T19:12:31.662Z,63.03
2023-04-06T19:14:59.659Z,64.08
2023-04-06T19:17:27.408Z,65.44
2023-04-06T19:19:59.580Z,66.23
2023-04-06T19:22:30.114Z,67.98
2023-04-06T19:24:59.280Z,68.28
2023-04-06T19:27:29.414Z,68.47
2023-04-06T19:32:59.405Z,69.99
2023-04-06T19:35:33.379Z,71.24
2023-04-06T19:38:14.220Z,72.15
2023-04-06T19:43:44.265Z,73.69
2023-04-06T19:55:10.105Z,78.18
2023-04-06T20:00:40.473Z,80.90
2023-04-06T20:03:09.246Z,81.86
2023-04-06T20:05:41.627Z,82.64
2023-04-06T20:08:12.218Z,84.07
2023-04-06T20:10:39.911Z,85.29
2023-04-06T20:13:09.097Z,86.33
2023-04-06T20:18:23.843Z,86.17
2023-04-06T20:21:02.692Z,86.45
2023-04-06T20:23:31.255Z,86.89
2023-04-06T20:26:01.295Z,88.11
2023-04-06T20:28:32.112Z,88.03
2023-04-06T20:31:05.139Z,90.34
2023-04-06T20:33:37.656Z,90.05
2023-04-06T20:36:15.545Z,91.58
2023-04-06T20:38:48.655Z,92.21
2023-04-06T20:41:17.915Z,90.92
2023-04-06T20:43:53.463Z,92.33
2023-04-06T20:46:27.045Z,92.92
2023-04-06T20:48:55.042Z,93.61
2023-04-06T20:51:24.364Z,95.67
2023-04-06T20:53:52.820Z,95.87
2023-04-06T20:56:21.944Z,97.59
2023-04-06T20:58:50.070Z,97.61
2023-04-06T21:01:19.440Z,98.15
2023-04-06T21:03:47.355Z,98.48
2023-04-06T21:06:23.748Z,98.46
2023-04-06T21:08:51.756Z,98.56
2023-04-06T21:11:19.509Z,100.00
2023-04-06T21:13:47.210Z,100.00
2023-04-06T21:16:15.088Z,98.83
2023-04-06T21:18:46.574Z,97.44
2023-04-06T21:21:16.700Z,97.69
2023-04-06T21:23:46.535Z,97.36
2023-04-06T21:26:14.229Z,97.38
2023-04-06T21:28:43.305Z,98.38
2023-04-06T21:31:11.175Z,98.79
2023-04-06T21:33:39.202Z,98.81
2023-04-06T21:36:09.013Z,98.49
2023-04-06T21:38:36.793Z,98.56
2023-04-06T21:41:04.728Z,100.00
2023-04-06T21:43:32.429Z,100.00
2023-04-06T21:46:00.230Z,100.00
2023-04-06T21:48:27.977Z,100.00
2023-04-06T21:50:55.860Z,100.00
2023-04-06T21:53:24.835Z,100.00
2023-04-06T21:55:52.469Z,100.00
2023-04-06T21:58:20.080Z,100.00
2023-04-06T22:00:47.676Z,99.48
2023-04-06T22:03:15.461Z,99.60
2023-04-06T22:05:44.517Z,100.00
2023-04-06T22:08:25.398Z,100.00
2023-04-06T22:11:08.464Z,100.00
2023-04-06T22:13:38.551Z,99.63
2023-04-06T22:16:08.082Z,99.69
2023-04-06T22:18:39.066Z,99.52
2023-04-06T22:21:07.103Z,100.00
2023-04-06T22:23:35.282Z,100.00
2023-04-06T22:26:04.299Z,100.00
2023-04-06T22:28:31.970Z,100.00
2023-04-06T22:30:59.574Z,100.00
2023-04-06T22:33:28.539Z,100.00
2023-04-06T22:35:56.440Z,100.00
2023-04-06T22:38:26.269Z,100.00
2023-04-06T22:40:53.980Z,100.00
2023-04-06T22:43:30.377Z,100.00
2023-04-06T22:45:58.480Z,100.00
2023-04-06T22:48:26.650Z,100.00
2023-04-06T22:50:54.730Z,100.00
2023-04-06T22:53:22.525Z,100.00
2023-04-06T22:55:50.473Z,100.00
2023-04-06T22:58:18.032Z,100.00
2023-04-06T23:00:47.018Z,100.00
2023-04-06T23:03:16.622Z,100.00
2023-04-06T23:05:54.969Z,100.00
2023-04-06T23:08:23.777Z,100.00
2023-04-06T23:10:53.295Z,100.00
2023-04-06T23:13:21.962Z,100.00
2023-04-06T23:15:51.047Z,100.00
2023-04-06T23:18:39.350Z,100.00
2023-04-06T23:21:08.819Z,100.00
2023-04-06T23:23:36.733Z,100.00
2023-04-06T23:26:06.603Z,100.00
2023-04-06T23:28:44.434Z,100.00
2023-04-06T23:31:13.821Z,100.00
2023-04-06T23:33:41.556Z,100.00
2023-04-06T23:36:09.749Z,100.00
2023-04-06T23:38:39.764Z,100.00
2023-04-06T23:41:08.196Z,100.00
2023-04-06T23:43:37.390Z,100.00
2023-04-06T23:46:08.709Z,100.00
2023-04-06T23:49:00.873Z,100.00
2023-04-06T23:51:30.051Z,100.00
2023-04-06T23:54:07.607Z,100.00
2023-04-06T23:56:36.938Z,100.00
2023-04-06T23:59:04.760Z,100.00
